AUA662 UKBB-LOWW
Flight info
| Callsign | AUA662 |
|---|---|
| Flight time | 1h 34m |
| Altitude | 34000 |
| Route | BASOR M141 IVF M986 LONLA/N0450F340 DCT BALUX DCT TORNO DCT NATEX NATEX2W |
| Aircraft | A321/M-SDE3FGHIRWY/LB1 |
Departure
| Time | 2026-04-23 08:09 |
|---|---|
| Airport | Boryspil International Airport (UKBB) |
Arrival
| Time | 2026-04-23 09:43 |
|---|---|
| Airport | Vienna International Airport (LOWW) |
| Time | Latitude | Longitude | Altitude | Speed | Heading |
|---|---|---|---|---|---|
| 2026-04-23 07:37 | 50.35225 | 30.89893 | 411 ft | 0 kts | 272° |
| 2026-04-23 07:59 | 50.35225 | 30.89895 | 415 ft | 2 kts | 272° |
| 2026-04-23 07:59 | 50.35225 | 30.89934 | 412 ft | 4 kts | 265° |
| 2026-04-23 07:59 | 50.35229 | 30.89975 | 411 ft | 4 kts | 252° |
| 2026-04-23 07:59 | 50.35240 | 30.90011 | 406 ft | 4 kts | 219° |
| 2026-04-23 08:00 | 50.35255 | 30.90022 | 415 ft | 1 kts | 183° |
| 2026-04-23 08:00 | 50.35258 | 30.90022 | 415 ft | 0 kts | 183° |
| 2026-04-23 08:02 | 50.35255 | 30.90022 | 415 ft | 2 kts | 183° |
| 2026-04-23 08:02 | 50.35208 | 30.90062 | 410 ft | 14 kts | 126° |
| 2026-04-23 08:02 | 50.35186 | 30.90215 | 415 ft | 13 kts | 112° |
| 2026-04-23 08:03 | 50.35110 | 30.90254 | 415 ft | 12 kts | 182° |
| 2026-04-23 08:03 | 50.35028 | 30.90248 | 414 ft | 11 kts | 182° |
| 2026-04-23 08:03 | 50.34945 | 30.90242 | 410 ft | 13 kts | 182° |
| 2026-04-23 08:03 | 50.34842 | 30.90234 | 415 ft | 18 kts | 182° |
| 2026-04-23 08:04 | 50.34696 | 30.90223 | 413 ft | 24 kts | 182° |
| 2026-04-23 08:04 | 50.34509 | 30.90209 | 411 ft | 27 kts | 182° |
| 2026-04-23 08:04 | 50.34323 | 30.90195 | 412 ft | 26 kts | 183° |
| 2026-04-23 08:04 | 50.34150 | 30.90182 | 413 ft | 24 kts | 182° |
| 2026-04-23 08:05 | 50.33988 | 30.90171 | 415 ft | 22 kts | 183° |
| 2026-04-23 08:05 | 50.33838 | 30.90160 | 413 ft | 21 kts | 183° |
| 2026-04-23 08:05 | 50.33698 | 30.90150 | 413 ft | 19 kts | 182° |
| 2026-04-23 08:05 | 50.33557 | 30.90140 | 410 ft | 22 kts | 182° |
| 2026-04-23 08:06 | 50.33395 | 30.90128 | 408 ft | 25 kts | 183° |
| 2026-04-23 08:06 | 50.33208 | 30.90113 | 413 ft | 29 kts | 182° |
| 2026-04-23 08:06 | 50.33015 | 30.90099 | 416 ft | 27 kts | 183° |
| 2026-04-23 08:06 | 50.32832 | 30.90086 | 415 ft | 26 kts | 182° |
| 2026-04-23 08:07 | 50.32660 | 30.90074 | 415 ft | 24 kts | 182° |
| 2026-04-23 08:07 | 50.32518 | 30.90068 | 412 ft | 18 kts | 172° |
| 2026-04-23 08:07 | 50.32447 | 30.90175 | 412 ft | 13 kts | 109° |
| 2026-04-23 08:07 | 50.32454 | 30.90277 | 418 ft | 6 kts | 67° |
| 2026-04-23 08:08 | 50.32477 | 30.90327 | 414 ft | 7 kts | 50° |
| 2026-04-23 08:08 | 50.32509 | 30.90377 | 423 ft | 5 kts | 28° |
| 2026-04-23 08:08 | 50.32589 | 30.90393 | 425 ft | 24 kts | 3° |
| 2026-04-23 08:08 | 50.32995 | 30.90421 | 414 ft | 90 kts | 2° |
| 2026-04-23 08:09 | 50.33799 | 30.90480 | 427 ft | 139 kts | 2° |
| 2026-04-23 08:09 | 50.34894 | 30.90573 | 594 ft | 162 kts | 0° |
| 2026-04-23 08:09 | 50.35900 | 30.90712 | 1671 ft | 135 kts | 356° |
| 2026-04-23 08:09 | 50.36896 | 30.90842 | 2041 ft | 154 kts | 357° |
| 2026-04-23 08:10 | 50.38023 | 30.90997 | 2330 ft | 171 kts | 358° |
| 2026-04-23 08:10 | 50.39265 | 30.91166 | 2516 ft | 192 kts | 358° |
| 2026-04-23 08:10 | 50.42262 | 30.91338 | 3011 ft | 236 kts | 357° |
| 2026-04-23 08:11 | 50.43922 | 30.91406 | 3734 ft | 241 kts | 357° |
| 2026-04-23 08:11 | 50.45605 | 30.91473 | 4524 ft | 243 kts | 357° |
| 2026-04-23 08:11 | 50.47305 | 30.91543 | 5312 ft | 246 kts | 357° |
| 2026-04-23 08:11 | 50.49022 | 30.91616 | 6066 ft | 248 kts | 358° |
| 2026-04-23 08:12 | 50.50740 | 30.92098 | 6723 ft | 258 kts | 18° |
| 2026-04-23 08:12 | 50.52208 | 30.93730 | 7425 ft | 272 kts | 44° |
| 2026-04-23 08:12 | 50.53070 | 30.96446 | 8101 ft | 289 kts | 74° |
| 2026-04-23 08:12 | 50.52946 | 30.99649 | 8762 ft | 304 kts | 107° |
| 2026-04-23 08:13 | 50.51766 | 31.02429 | 9398 ft | 313 kts | 140° |
| 2026-04-23 08:13 | 50.49835 | 31.03949 | 9959 ft | 313 kts | 173° |
| 2026-04-23 08:13 | 50.47697 | 31.03800 | 10414 ft | 311 kts | 200° |
| 2026-04-23 08:13 | 50.45612 | 31.02637 | 10537 ft | 326 kts | 210° |
| 2026-04-23 08:14 | 50.43517 | 31.01044 | 10675 ft | 343 kts | 213° |
| 2026-04-23 08:14 | 50.41376 | 30.99282 | 10805 ft | 361 kts | 213° |
| 2026-04-23 08:14 | 50.39090 | 30.97430 | 10946 ft | 378 kts | 212° |
| 2026-04-23 08:14 | 50.36700 | 30.95605 | 11320 ft | 386 kts | 210° |
| 2026-04-23 08:15 | 50.34243 | 30.93843 | 11842 ft | 390 kts | 209° |
| 2026-04-23 08:15 | 50.31744 | 30.92132 | 12373 ft | 394 kts | 208° |
| 2026-04-23 08:15 | 50.29194 | 30.90500 | 12888 ft | 399 kts | 204° |
| 2026-04-23 08:15 | 50.26467 | 30.89449 | 13403 ft | 408 kts | 195° |
| 2026-04-23 08:16 | 50.23671 | 30.88703 | 13865 ft | 408 kts | 195° |
| 2026-04-23 08:16 | 50.20870 | 30.87917 | 14290 ft | 410 kts | 196° |
| 2026-04-23 08:16 | 50.18099 | 30.87113 | 14664 ft | 413 kts | 196° |
| 2026-04-23 08:16 | 50.15262 | 30.86274 | 15047 ft | 415 kts | 196° |
| 2026-04-23 08:17 | 50.12420 | 30.85426 | 15403 ft | 418 kts | 197° |
| 2026-04-23 08:17 | 50.09644 | 30.84173 | 15778 ft | 413 kts | 208° |
| 2026-04-23 08:17 | 50.07095 | 30.82177 | 16136 ft | 408 kts | 219° |
| 2026-04-23 08:17 | 50.04853 | 30.79533 | 16489 ft | 402 kts | 229° |
| 2026-04-23 08:18 | 50.02981 | 30.76349 | 16787 ft | 397 kts | 240° |
| 2026-04-23 08:18 | 50.01535 | 30.72793 | 17088 ft | 393 kts | 249° |
| 2026-04-23 08:18 | 50.00248 | 30.69031 | 17433 ft | 396 kts | 248° |
| 2026-04-23 08:18 | 49.98943 | 30.65247 | 17792 ft | 399 kts | 248° |
| 2026-04-23 08:19 | 49.97620 | 30.61444 | 18117 ft | 402 kts | 248° |
| 2026-04-23 08:19 | 49.96282 | 30.57618 | 18427 ft | 404 kts | 248° |
| 2026-04-23 08:19 | 49.94931 | 30.53770 | 18747 ft | 407 kts | 248° |
| 2026-04-23 08:19 | 49.93569 | 30.49898 | 19063 ft | 410 kts | 249° |
| 2026-04-23 08:20 | 49.92199 | 30.46000 | 19354 ft | 413 kts | 249° |
| 2026-04-23 08:20 | 49.90819 | 30.42061 | 19575 ft | 419 kts | 250° |
| 2026-04-23 08:20 | 49.89441 | 30.38128 | 19869 ft | 422 kts | 250° |
| 2026-04-23 08:20 | 49.88030 | 30.34102 | 20078 ft | 426 kts | 250° |
| 2026-04-23 08:21 | 49.86610 | 30.30059 | 20377 ft | 429 kts | 250° |
| 2026-04-23 08:21 | 49.85176 | 30.25982 | 20700 ft | 432 kts | 250° |
| 2026-04-23 08:21 | 49.83731 | 30.21883 | 21026 ft | 435 kts | 250° |
| 2026-04-23 08:21 | 49.82273 | 30.17765 | 21339 ft | 437 kts | 250° |
| 2026-04-23 08:22 | 49.80802 | 30.13628 | 21649 ft | 440 kts | 250° |
| 2026-04-23 08:22 | 49.79339 | 30.09527 | 21960 ft | 442 kts | 250° |
| 2026-04-23 08:22 | 49.77848 | 30.05348 | 22268 ft | 445 kts | 250° |
| 2026-04-23 08:22 | 49.76349 | 30.01146 | 22562 ft | 447 kts | 251° |
| 2026-04-23 08:23 | 49.74840 | 29.96922 | 22859 ft | 450 kts | 251° |
| 2026-04-23 08:23 | 49.73320 | 29.92674 | 23093 ft | 453 kts | 251° |
| 2026-04-23 08:23 | 49.71789 | 29.88400 | 23348 ft | 456 kts | 251° |
| 2026-04-23 08:23 | 49.70254 | 29.84114 | 23596 ft | 458 kts | 251° |
| 2026-04-23 08:24 | 49.68704 | 29.79802 | 23855 ft | 460 kts | 250° |
| 2026-04-23 08:24 | 49.67144 | 29.75473 | 24120 ft | 462 kts | 250° |
| 2026-04-23 08:24 | 49.65671 | 29.71082 | 24358 ft | 456 kts | 256° |
| 2026-04-23 08:24 | 49.64644 | 29.66575 | 24589 ft | 447 kts | 265° |
| 2026-04-23 08:25 | 49.63995 | 29.61923 | 24814 ft | 443 kts | 268° |
| 2026-04-23 08:25 | 49.63390 | 29.57244 | 24958 ft | 446 kts | 269° |
| 2026-04-23 08:25 | 49.62772 | 29.52535 | 25160 ft | 449 kts | 269° |
| 2026-04-23 08:25 | 49.62141 | 29.47804 | 25367 ft | 451 kts | 268° |
| 2026-04-23 08:26 | 49.61502 | 29.43055 | 25568 ft | 453 kts | 268° |
| 2026-04-23 08:26 | 49.60856 | 29.38291 | 25759 ft | 455 kts | 268° |
| 2026-04-23 08:26 | 49.60207 | 29.33511 | 25948 ft | 456 kts | 268° |
| 2026-04-23 08:26 | 49.59556 | 29.28718 | 26126 ft | 457 kts | 268° |
| 2026-04-23 08:27 | 49.58914 | 29.23986 | 26300 ft | 459 kts | 268° |
| 2026-04-23 08:27 | 49.58261 | 29.19177 | 26547 ft | 458 kts | 268° |
| 2026-04-23 08:27 | 49.57606 | 29.14375 | 26786 ft | 458 kts | 268° |
| 2026-04-23 08:27 | 49.56949 | 29.09578 | 27020 ft | 457 kts | 268° |
| 2026-04-23 08:28 | 49.56289 | 29.04785 | 27247 ft | 457 kts | 268° |
| 2026-04-23 08:28 | 49.55628 | 28.99995 | 27446 ft | 457 kts | 269° |
| 2026-04-23 08:28 | 49.54966 | 28.95198 | 27618 ft | 459 kts | 269° |
| 2026-04-23 08:28 | 49.54303 | 28.90388 | 27802 ft | 460 kts | 269° |
| 2026-04-23 08:29 | 49.53645 | 28.85635 | 27950 ft | 461 kts | 269° |
| 2026-04-23 08:29 | 49.52976 | 28.80807 | 28123 ft | 462 kts | 269° |
| 2026-04-23 08:29 | 49.52302 | 28.75981 | 28341 ft | 462 kts | 269° |
| 2026-04-23 08:29 | 49.51621 | 28.71151 | 28550 ft | 462 kts | 269° |
| 2026-04-23 08:30 | 49.50935 | 28.66322 | 28761 ft | 462 kts | 269° |
| 2026-04-23 08:30 | 49.50247 | 28.61496 | 28990 ft | 462 kts | 269° |
| 2026-04-23 08:30 | 49.49558 | 28.56673 | 29213 ft | 461 kts | 269° |
| 2026-04-23 08:30 | 49.48870 | 28.51854 | 29441 ft | 461 kts | 269° |
| 2026-04-23 08:31 | 49.48183 | 28.47048 | 29655 ft | 461 kts | 269° |
| 2026-04-23 08:31 | 49.47503 | 28.42300 | 29848 ft | 461 kts | 269° |
| 2026-04-23 08:31 | 49.46809 | 28.37476 | 29977 ft | 462 kts | 269° |
| 2026-04-23 08:31 | 49.46118 | 28.32659 | 30099 ft | 463 kts | 269° |
| 2026-04-23 08:32 | 49.45420 | 28.27820 | 30203 ft | 464 kts | 268° |
| 2026-04-23 08:32 | 49.44717 | 28.22971 | 30338 ft | 466 kts | 268° |
| 2026-04-23 08:32 | 49.44012 | 28.18110 | 30476 ft | 466 kts | 268° |
| 2026-04-23 08:32 | 49.43306 | 28.13247 | 30656 ft | 466 kts | 268° |
| 2026-04-23 08:33 | 49.42596 | 28.08384 | 30838 ft | 467 kts | 268° |
| 2026-04-23 08:33 | 49.41890 | 28.03587 | 31012 ft | 467 kts | 268° |
| 2026-04-23 08:33 | 49.41171 | 27.98726 | 31192 ft | 467 kts | 268° |
| 2026-04-23 08:33 | 49.40452 | 27.93876 | 31366 ft | 467 kts | 268° |
| 2026-04-23 08:34 | 49.39727 | 27.89016 | 31555 ft | 467 kts | 268° |
| 2026-04-23 08:34 | 49.39001 | 27.84145 | 31731 ft | 467 kts | 268° |
| 2026-04-23 08:34 | 49.38283 | 27.79286 | 31902 ft | 467 kts | 268° |
| 2026-04-23 08:34 | 49.37574 | 27.74434 | 32043 ft | 467 kts | 268° |
| 2026-04-23 08:35 | 49.36866 | 27.69568 | 32221 ft | 467 kts | 268° |
| 2026-04-23 08:35 | 49.36156 | 27.64703 | 32363 ft | 468 kts | 267° |
| 2026-04-23 08:35 | 49.35451 | 27.59896 | 32510 ft | 468 kts | 267° |
| 2026-04-23 08:35 | 49.34735 | 27.55020 | 32684 ft | 469 kts | 267° |
| 2026-04-23 08:36 | 49.34017 | 27.50144 | 32860 ft | 469 kts | 267° |
| 2026-04-23 08:36 | 49.33297 | 27.45270 | 33036 ft | 469 kts | 267° |
| 2026-04-23 08:36 | 49.32571 | 27.40398 | 33212 ft | 469 kts | 267° |
| 2026-04-23 08:36 | 49.31839 | 27.35527 | 33374 ft | 469 kts | 266° |
| 2026-04-23 08:37 | 49.31108 | 27.30668 | 33538 ft | 469 kts | 266° |
| 2026-04-23 08:37 | 49.30372 | 27.25793 | 33723 ft | 468 kts | 266° |
| 2026-04-23 08:37 | 49.28907 | 27.16078 | 33802 ft | 468 kts | 266° |
| 2026-04-23 08:38 | 49.27443 | 27.06434 | 33807 ft | 468 kts | 266° |
| 2026-04-23 08:38 | 49.25959 | 26.96722 | 33808 ft | 469 kts | 266° |
| 2026-04-23 08:39 | 49.24460 | 26.87003 | 33813 ft | 469 kts | 266° |
| 2026-04-23 08:39 | 49.22950 | 26.77292 | 33826 ft | 469 kts | 266° |
| 2026-04-23 08:40 | 49.21447 | 26.67659 | 33824 ft | 469 kts | 266° |
| 2026-04-23 08:40 | 49.19926 | 26.57953 | 33806 ft | 469 kts | 265° |
| 2026-04-23 08:41 | 49.18398 | 26.48244 | 33805 ft | 470 kts | 265° |
| 2026-04-23 08:41 | 49.16855 | 26.38520 | 33806 ft | 472 kts | 265° |
| 2026-04-23 08:42 | 49.15306 | 26.28832 | 33823 ft | 473 kts | 265° |
| 2026-04-23 08:42 | 49.13736 | 26.19067 | 33849 ft | 474 kts | 265° |
| 2026-04-23 08:43 | 49.12154 | 26.09296 | 33854 ft | 474 kts | 265° |
| 2026-04-23 08:43 | 49.10562 | 25.99534 | 33823 ft | 475 kts | 264° |
| 2026-04-23 08:44 | 49.08956 | 25.89759 | 33846 ft | 475 kts | 264° |
| 2026-04-23 08:44 | 49.07360 | 25.80051 | 33825 ft | 475 kts | 264° |
| 2026-04-23 08:45 | 49.05741 | 25.70276 | 33847 ft | 476 kts | 263° |
| 2026-04-23 08:45 | 49.04113 | 25.60501 | 33856 ft | 476 kts | 263° |
| 2026-04-23 08:46 | 49.02472 | 25.50745 | 33865 ft | 476 kts | 263° |
| 2026-04-23 08:46 | 49.00832 | 25.41046 | 33850 ft | 476 kts | 263° |
| 2026-04-23 08:47 | 48.99176 | 25.31277 | 33865 ft | 477 kts | 263° |
| 2026-04-23 08:47 | 48.97513 | 25.21507 | 33868 ft | 477 kts | 262° |
| 2026-04-23 08:48 | 48.95844 | 25.11736 | 33878 ft | 477 kts | 262° |
| 2026-04-23 08:48 | 48.94166 | 25.02039 | 33886 ft | 477 kts | 262° |
| 2026-04-23 08:49 | 48.92467 | 24.92291 | 33898 ft | 477 kts | 262° |
| 2026-04-23 08:49 | 48.90765 | 24.82535 | 33875 ft | 478 kts | 262° |
| 2026-04-23 08:50 | 48.89055 | 24.72776 | 33895 ft | 478 kts | 262° |
| 2026-04-23 08:50 | 48.87243 | 24.63111 | 33884 ft | 480 kts | 258° |
| 2026-04-23 08:51 | 48.85095 | 24.53476 | 33899 ft | 482 kts | 256° |
| 2026-04-23 08:51 | 48.82861 | 24.43873 | 33920 ft | 482 kts | 257° |
| 2026-04-23 08:52 | 48.80694 | 24.34247 | 33930 ft | 482 kts | 257° |
| 2026-04-23 08:52 | 48.78573 | 24.24619 | 33907 ft | 482 kts | 257° |
| 2026-04-23 08:53 | 48.76458 | 24.15047 | 33917 ft | 482 kts | 257° |
| 2026-04-23 08:53 | 48.74299 | 24.05422 | 33926 ft | 482 kts | 256° |
| 2026-04-23 08:54 | 48.72124 | 23.95804 | 33942 ft | 482 kts | 256° |
| 2026-04-23 08:54 | 48.69936 | 23.86197 | 33948 ft | 483 kts | 256° |
| 2026-04-23 08:55 | 48.67755 | 23.76669 | 33957 ft | 483 kts | 256° |
| 2026-04-23 08:55 | 48.65552 | 23.67068 | 33941 ft | 483 kts | 256° |
| 2026-04-23 08:56 | 48.63320 | 23.57484 | 33949 ft | 484 kts | 255° |
| 2026-04-23 08:56 | 48.60958 | 23.47951 | 33964 ft | 485 kts | 253° |
| 2026-04-23 08:57 | 48.58574 | 23.38493 | 33974 ft | 485 kts | 254° |
| 2026-04-23 08:57 | 48.56190 | 23.28962 | 33988 ft | 485 kts | 254° |
| 2026-04-23 08:58 | 48.53810 | 23.19428 | 33994 ft | 485 kts | 254° |
| 2026-04-23 08:58 | 48.51572 | 23.09852 | 34003 ft | 484 kts | 257° |
| 2026-04-23 08:59 | 48.49524 | 23.00192 | 33982 ft | 484 kts | 257° |
| 2026-04-23 08:59 | 48.47482 | 22.90588 | 33983 ft | 485 kts | 256° |
| 2026-04-23 09:00 | 48.45349 | 22.80940 | 33991 ft | 486 kts | 256° |
| 2026-04-23 09:00 | 48.43143 | 22.71319 | 33994 ft | 486 kts | 255° |
| 2026-04-23 09:01 | 48.40904 | 22.61719 | 34002 ft | 486 kts | 255° |
| 2026-04-23 09:01 | 48.38690 | 22.52179 | 33998 ft | 486 kts | 255° |
| 2026-04-23 09:02 | 48.36467 | 22.42578 | 33981 ft | 487 kts | 255° |
| 2026-04-23 09:02 | 48.34225 | 22.32967 | 34005 ft | 487 kts | 254° |
| 2026-04-23 09:03 | 48.31697 | 22.23485 | 34013 ft | 490 kts | 250° |
| 2026-04-23 09:03 | 48.28879 | 22.14227 | 34010 ft | 491 kts | 248° |
| 2026-04-23 09:04 | 48.26009 | 22.04927 | 33997 ft | 491 kts | 249° |
| 2026-04-23 09:04 | 48.23195 | 21.95559 | 34020 ft | 491 kts | 249° |
| 2026-04-23 09:05 | 48.20451 | 21.86276 | 34021 ft | 491 kts | 249° |
| 2026-04-23 09:05 | 48.17672 | 21.76933 | 34027 ft | 491 kts | 249° |
| 2026-04-23 09:06 | 48.14870 | 21.67606 | 34042 ft | 491 kts | 249° |
| 2026-04-23 09:06 | 48.12056 | 21.58292 | 34040 ft | 491 kts | 248° |
| 2026-04-23 09:07 | 48.09248 | 21.49058 | 34034 ft | 491 kts | 248° |
| 2026-04-23 09:07 | 48.06422 | 21.39774 | 34038 ft | 490 kts | 248° |
| 2026-04-23 09:08 | 48.03599 | 21.30497 | 34042 ft | 490 kts | 248° |
| 2026-04-23 09:08 | 48.00763 | 21.21249 | 34042 ft | 490 kts | 248° |
| 2026-04-23 09:09 | 47.97929 | 21.12069 | 34049 ft | 490 kts | 248° |
| 2026-04-23 09:09 | 47.95080 | 21.02832 | 34047 ft | 490 kts | 248° |
| 2026-04-23 09:10 | 47.90787 | 20.89002 | 34050 ft | 490 kts | 248° |
| 2026-04-23 09:11 | 47.87919 | 20.79806 | 34048 ft | 490 kts | 248° |
| 2026-04-23 09:11 | 47.85040 | 20.70610 | 34044 ft | 490 kts | 248° |
| 2026-04-23 09:12 | 47.82177 | 20.61477 | 34031 ft | 490 kts | 248° |
| 2026-04-23 09:12 | 47.79291 | 20.52296 | 34039 ft | 490 kts | 248° |
| 2026-04-23 09:13 | 47.76390 | 20.43115 | 34056 ft | 491 kts | 248° |
| 2026-04-23 09:13 | 47.73477 | 20.33945 | 34060 ft | 491 kts | 247° |
| 2026-04-23 09:14 | 47.70580 | 20.24844 | 34063 ft | 490 kts | 247° |
| 2026-04-23 09:14 | 47.67663 | 20.15705 | 34069 ft | 490 kts | 247° |
| 2026-04-23 09:15 | 47.64736 | 20.06570 | 34066 ft | 490 kts | 247° |
| 2026-04-23 09:15 | 47.61800 | 19.97449 | 34077 ft | 490 kts | 247° |
| 2026-04-23 09:16 | 47.58852 | 19.88341 | 34083 ft | 490 kts | 247° |
| 2026-04-23 09:16 | 47.55922 | 19.79317 | 34086 ft | 490 kts | 247° |
| 2026-04-23 09:17 | 47.52974 | 19.70241 | 34098 ft | 489 kts | 247° |
| 2026-04-23 09:17 | 47.50017 | 19.61176 | 34106 ft | 489 kts | 247° |
| 2026-04-23 09:18 | 47.47053 | 19.52130 | 34087 ft | 489 kts | 246° |
| 2026-04-23 09:18 | 47.44102 | 19.43157 | 34097 ft | 488 kts | 246° |
| 2026-04-23 09:19 | 47.41122 | 19.34138 | 34101 ft | 489 kts | 246° |
| 2026-04-23 09:19 | 47.38138 | 19.25131 | 34106 ft | 488 kts | 248° |
| 2026-04-23 09:19 | 47.36967 | 19.20457 | 34106 ft | 484 kts | 259° |
| 2026-04-23 09:20 | 47.36354 | 19.15603 | 34106 ft | 478 kts | 269° |
| 2026-04-23 09:20 | 47.36740 | 19.06061 | 34103 ft | 465 kts | 288° |
| 2026-04-23 09:21 | 47.39020 | 18.97290 | 34083 ft | 456 kts | 300° |
| 2026-04-23 09:21 | 47.41689 | 18.88785 | 34094 ft | 457 kts | 300° |
| 2026-04-23 09:22 | 47.44332 | 18.80246 | 34107 ft | 457 kts | 300° |
| 2026-04-23 09:22 | 47.46954 | 18.71767 | 33474 ft | 456 kts | 300° |
| 2026-04-23 09:22 | 47.48274 | 18.67500 | 32619 ft | 457 kts | 300° |
| 2026-04-23 09:23 | 47.49597 | 18.63222 | 31770 ft | 458 kts | 300° |
| 2026-04-23 09:23 | 47.50920 | 18.58943 | 30948 ft | 459 kts | 300° |
| 2026-04-23 09:23 | 47.52245 | 18.54644 | 30108 ft | 460 kts | 300° |
| 2026-04-23 09:23 | 47.53568 | 18.50327 | 29111 ft | 462 kts | 298° |
| 2026-04-23 09:24 | 47.54665 | 18.45824 | 28094 ft | 468 kts | 292° |
| 2026-04-23 09:24 | 47.55644 | 18.41219 | 27067 ft | 470 kts | 292° |
| 2026-04-23 09:24 | 47.56615 | 18.36658 | 26057 ft | 472 kts | 292° |
| 2026-04-23 09:24 | 47.57603 | 18.32014 | 25034 ft | 474 kts | 291° |
| 2026-04-23 09:25 | 47.58592 | 18.27353 | 24017 ft | 476 kts | 291° |
| 2026-04-23 09:25 | 47.59577 | 18.22701 | 23224 ft | 471 kts | 291° |
| 2026-04-23 09:25 | 47.60549 | 18.18100 | 22436 ft | 465 kts | 291° |
| 2026-04-23 09:25 | 47.61509 | 18.13553 | 21665 ft | 460 kts | 291° |
| 2026-04-23 09:26 | 47.62456 | 18.09056 | 20915 ft | 455 kts | 291° |
| 2026-04-23 09:26 | 47.63390 | 18.04612 | 20164 ft | 450 kts | 291° |
| 2026-04-23 09:26 | 47.64315 | 18.00211 | 19418 ft | 445 kts | 291° |
| 2026-04-23 09:26 | 47.65229 | 17.95853 | 18717 ft | 440 kts | 291° |
| 2026-04-23 09:27 | 47.66118 | 17.91596 | 17987 ft | 436 kts | 291° |
| 2026-04-23 09:27 | 47.67006 | 17.87330 | 17241 ft | 430 kts | 291° |
| 2026-04-23 09:27 | 47.67878 | 17.83125 | 16525 ft | 423 kts | 291° |
| 2026-04-23 09:27 | 47.68735 | 17.78978 | 15847 ft | 417 kts | 291° |
| 2026-04-23 09:28 | 47.69580 | 17.74891 | 15144 ft | 411 kts | 292° |
| 2026-04-23 09:28 | 47.70412 | 17.70864 | 14447 ft | 405 kts | 292° |
| 2026-04-23 09:28 | 47.71230 | 17.66895 | 13730 ft | 399 kts | 292° |
| 2026-04-23 09:28 | 47.72031 | 17.62992 | 12954 ft | 393 kts | 292° |
| 2026-04-23 09:29 | 47.72811 | 17.59174 | 12226 ft | 388 kts | 291° |
| 2026-04-23 09:29 | 47.73586 | 17.55369 | 11525 ft | 383 kts | 291° |
| 2026-04-23 09:29 | 47.74221 | 17.51537 | 10888 ft | 382 kts | 283° |
| 2026-04-23 09:29 | 47.74419 | 17.47678 | 10732 ft | 368 kts | 275° |
| 2026-04-23 09:30 | 47.74249 | 17.43955 | 10610 ft | 354 kts | 269° |
| 2026-04-23 09:30 | 47.74000 | 17.40401 | 10486 ft | 338 kts | 269° |
| 2026-04-23 09:30 | 47.73760 | 17.37003 | 10359 ft | 323 kts | 270° |
| 2026-04-23 09:30 | 47.73527 | 17.33757 | 10236 ft | 309 kts | 270° |
| 2026-04-23 09:31 | 47.73305 | 17.30653 | 10103 ft | 297 kts | 270° |
| 2026-04-23 09:31 | 47.73092 | 17.27635 | 9789 ft | 291 kts | 270° |
| 2026-04-23 09:31 | 47.72883 | 17.24659 | 9401 ft | 288 kts | 270° |
| 2026-04-23 09:31 | 47.72677 | 17.21749 | 9021 ft | 286 kts | 270° |
| 2026-04-23 09:32 | 47.72466 | 17.18830 | 8629 ft | 283 kts | 270° |
| 2026-04-23 09:32 | 47.72253 | 17.15936 | 8258 ft | 280 kts | 270° |
| 2026-04-23 09:32 | 47.72114 | 17.14035 | 8009 ft | 278 kts | 270° |
| 2026-04-23 09:32 | 47.71836 | 17.10240 | 7507 ft | 274 kts | 270° |
| 2026-04-23 09:33 | 47.71633 | 17.07437 | 7125 ft | 272 kts | 271° |
| 2026-04-23 09:33 | 47.71591 | 17.05603 | 6885 ft | 266 kts | 279° |
| 2026-04-23 09:33 | 47.71868 | 17.02945 | 6566 ft | 256 kts | 290° |
| 2026-04-23 09:33 | 47.72425 | 16.99577 | 6080 ft | 251 kts | 289° |
| 2026-04-23 09:34 | 47.72832 | 16.97079 | 5689 ft | 247 kts | 290° |
| 2026-04-23 09:34 | 47.73531 | 16.94823 | 5320 ft | 237 kts | 307° |
| 2026-04-23 09:34 | 47.74430 | 16.92780 | 4932 ft | 236 kts | 306° |
| 2026-04-23 09:34 | 47.75322 | 16.90748 | 4522 ft | 234 kts | 306° |
| 2026-04-23 09:35 | 47.75908 | 16.89411 | 4266 ft | 232 kts | 306° |
| 2026-04-23 09:35 | 47.76785 | 16.87411 | 3984 ft | 228 kts | 306° |
| 2026-04-23 09:35 | 47.77664 | 16.85413 | 3975 ft | 232 kts | 306° |
| 2026-04-23 09:35 | 47.78834 | 16.82753 | 3996 ft | 231 kts | 306° |
| 2026-04-23 09:36 | 47.79716 | 16.80748 | 3990 ft | 231 kts | 306° |
| 2026-04-23 09:36 | 47.80588 | 16.78766 | 3984 ft | 222 kts | 306° |
| 2026-04-23 09:36 | 47.81144 | 16.77494 | 3997 ft | 215 kts | 306° |
| 2026-04-23 09:36 | 47.82215 | 16.75049 | 3998 ft | 210 kts | 306° |
| 2026-04-23 09:37 | 47.82745 | 16.73837 | 3985 ft | 211 kts | 306° |
| 2026-04-23 09:37 | 47.83542 | 16.72017 | 3993 ft | 209 kts | 306° |
| 2026-04-23 09:37 | 47.84414 | 16.70309 | 4008 ft | 206 kts | 317° |
| 2026-04-23 09:37 | 47.85559 | 16.69111 | 4021 ft | 200 kts | 335° |
| 2026-04-23 09:38 | 47.87313 | 16.68208 | 3998 ft | 202 kts | 341° |
| 2026-04-23 09:38 | 47.88232 | 16.67813 | 3984 ft | 204 kts | 342° |
| 2026-04-23 09:38 | 47.89592 | 16.67241 | 4058 ft | 204 kts | 342° |
| 2026-04-23 09:38 | 47.90934 | 16.66679 | 3856 ft | 203 kts | 342° |
| 2026-04-23 09:39 | 47.92292 | 16.66109 | 3548 ft | 201 kts | 342° |
| 2026-04-23 09:39 | 47.93587 | 16.65567 | 3398 ft | 186 kts | 341° |
| 2026-04-23 09:39 | 47.94807 | 16.65055 | 3131 ft | 179 kts | 341° |
| 2026-04-23 09:39 | 47.96009 | 16.64549 | 3010 ft | 181 kts | 341° |
| 2026-04-23 09:40 | 47.97221 | 16.64039 | 2947 ft | 180 kts | 341° |
| 2026-04-23 09:40 | 47.98398 | 16.63545 | 2785 ft | 171 kts | 341° |
| 2026-04-23 09:40 | 47.99520 | 16.63073 | 2549 ft | 161 kts | 342° |
| 2026-04-23 09:40 | 48.00529 | 16.62650 | 2364 ft | 146 kts | 341° |
| 2026-04-23 09:41 | 48.01478 | 16.62250 | 2165 ft | 140 kts | 341° |
| 2026-04-23 09:41 | 48.02405 | 16.61859 | 1976 ft | 138 kts | 341° |
| 2026-04-23 09:41 | 48.03321 | 16.61473 | 1783 ft | 136 kts | 341° |
| 2026-04-23 09:41 | 48.04229 | 16.61090 | 1601 ft | 134 kts | 341° |
| 2026-04-23 09:42 | 48.05137 | 16.60707 | 1404 ft | 137 kts | 340° |
| 2026-04-23 09:42 | 48.06053 | 16.60321 | 1195 ft | 136 kts | 340° |
| 2026-04-23 09:42 | 48.06950 | 16.59942 | 1035 ft | 133 kts | 340° |
| 2026-04-23 09:42 | 48.07861 | 16.59543 | 849 ft | 137 kts | 345° |
| 2026-04-23 09:43 | 48.08768 | 16.59182 | 680 ft | 133 kts | 339° |
| 2026-04-23 09:43 | 48.09625 | 16.58809 | 616 ft | 116 kts | 345° |
| 2026-04-23 09:43 | 48.10226 | 16.58558 | 615 ft | 66 kts | 343° |
| 2026-04-23 09:43 | 48.10522 | 16.58434 | 612 ft | 34 kts | 345° |
| 2026-04-23 09:44 | 48.10669 | 16.58342 | 617 ft | 20 kts | 329° |
| 2026-04-23 09:44 | 48.10770 | 16.58221 | 609 ft | 17 kts | 315° |
| 2026-04-23 09:44 | 48.10850 | 16.58098 | 611 ft | 16 kts | 314° |
| 2026-04-23 09:44 | 48.10926 | 16.57994 | 621 ft | 14 kts | 325° |
| 2026-04-23 09:45 | 48.11019 | 16.57944 | 617 ft | 17 kts | 343° |
| 2026-04-23 09:45 | 48.11140 | 16.57893 | 614 ft | 19 kts | 344° |
| 2026-04-23 09:45 | 48.11264 | 16.57840 | 617 ft | 19 kts | 344° |
| 2026-04-23 09:45 | 48.11389 | 16.57787 | 622 ft | 19 kts | 343° |
| 2026-04-23 09:46 | 48.11514 | 16.57733 | 614 ft | 19 kts | 345° |
| 2026-04-23 09:46 | 48.11640 | 16.57682 | 609 ft | 19 kts | 343° |
| 2026-04-23 09:46 | 48.11764 | 16.57627 | 622 ft | 19 kts | 344° |
| 2026-04-23 09:46 | 48.11829 | 16.57569 | 616 ft | 10 kts | 294° |
| 2026-04-23 09:47 | 48.11820 | 16.57467 | 611 ft | 10 kts | 255° |
| 2026-04-23 09:47 | 48.11808 | 16.57371 | 612 ft | 9 kts | 274° |
| 2026-04-23 09:47 | 48.11831 | 16.57284 | 620 ft | 9 kts | 295° |
| 2026-04-23 09:47 | 48.11851 | 16.57199 | 615 ft | 9 kts | 276° |
| 2026-04-23 09:48 | 48.11865 | 16.57113 | 621 ft | 9 kts | 293° |
| 2026-04-23 09:48 | 48.11887 | 16.57036 | 611 ft | 6 kts | 282° |
| 2026-04-23 09:48 | 48.11871 | 16.57017 | 618 ft | 3 kts | 205° |
| 2026-04-23 09:48 | 48.11857 | 16.57007 | 609 ft | 2 kts | 205° |
| 2026-04-23 09:49 | 48.11845 | 16.56998 | 613 ft | 2 kts | 206° |
| 2026-04-23 09:49 | 48.11833 | 16.56990 | 621 ft | 2 kts | 206° |
| 2026-04-23 09:49 | 48.11830 | 16.56988 | 620 ft | 0 kts | 206° |